Time;durP1;ratioP1;P1;durP2;ratioP2;P2;SDS_P1;SDS_P2;PMS_P1;PMS_P2;Temp;Humidity;BMP_temperature;BMP_pressure;BME280_temperature;BME280_humidity;BME280_pressure;Samples;Min_cycle;Max_cycle;Signal;HPM_P1;HPM_P2
2022/04/10 00:01:31;;;;;;;;;;;;;;;5.98;59.13;98561.72;5092241;28;3716;-94
2022/04/10 00:03:58;;;;;;;;;;;;;;;5.96;59.19;98556.63;5096264;28;944;-95
2022/04/10 00:06:24;;;;;;;;;;;;;;;5.97;58.96;98565.44;5082826;28;3847;-95
2022/04/10 00:08:51;;;;;;;;;;;;;;;5.94;58.95;98558.69;5078590;28;3790;-95
2022/04/10 00:11:17;;;;;;;;;;;;;;;5.92;59.00;98558.94;5078138;28;1369;-94
2022/04/10 00:13:44;;;;;;;;;;;;;;;5.94;58.92;98574.72;5085581;28;3807;-95
2022/04/10 00:16:10;;;;;;;;;;;;;;;5.92;58.69;98561.59;5109440;28;1437;-94
2022/04/10 00:18:37;;;;;;;;;;;;;;;5.92;58.87;98569.63;5109538;28;2022;-95
2022/04/10 00:21:04;;;;;;;;;;;;;;;5.91;58.63;98568.00;5097171;28;3465;-94
2022/04/10 00:23:30;;;;;;;;;;;;;;;5.90;58.97;98574.38;5094347;28;1160;-95
2022/04/10 00:25:57;;;;;;;;;;;;;;;5.89;58.99;98574.63;5091333;28;3848;-95
2022/04/10 00:28:23;;;;;;;;;;;;;;;5.88;58.80;98570.31;5089062;28;1329;-94
2022/04/10 00:30:50;;;;;;;;;;;;;;;5.89;58.80;98579.97;5106650;28;3779;-95
2022/04/10 00:33:17;;;;;;;;;;;;;;;5.87;58.93;98576.72;5097848;28;1391;-95
2022/04/10 00:35:43;;;;;;;;;;;;;;;5.86;58.69;98570.56;5087464;28;3444;-95
2022/04/10 00:38:10;;;;;;;;;;;;;;;5.86;58.94;98580.44;5095512;28;1978;-95
2022/04/10 00:40:36;;;;;;;;;;;;;;;5.85;58.82;98568.94;5097638;28;1403;-94
2022/04/10 00:43:03;;;;;;;;;;;;;;;5.85;58.71;98581.47;5092174;28;3313;-95
2022/04/10 00:45:30;;;;;;;;;;;;;;;5.85;58.73;98576.13;5090342;28;1917;-95
2022/04/10 00:47:56;;;;;;;;;;;;;;;5.84;58.61;98577.19;5085752;28;3851;-95
2022/04/10 00:50:23;;;;;;;;;;;;;;;5.85;58.50;98573.47;5095195;28;2046;-95
2022/04/10 00:52:49;;;;;;;;;;;;;;;5.83;58.72;98573.72;5095779;28;2240;-95
2022/04/10 00:55:16;;;;;;;;;;;;;;;5.82;58.55;98568.59;5091715;28;3753;-94
2022/04/10 00:57:42;;;;;;;;;;;;;;;5.82;58.56;98571.25;5097209;28;1508;-95
2022/04/10 01:00:09;;;;;;;;;;;;;;;5.80;58.56;98570.72;5086737;28;3714;-94
2022/04/10 01:02:35;;;;;;;;;;;;;;;5.80;58.62;98576.06;5112968;28;1991;-95
2022/04/10 01:05:02;;;;;;;;;;;;;;;5.81;58.31;98578.47;5094571;28;3798;-94
2022/04/10 01:07:29;;;;;;;;;;;;;;;5.80;58.28;98568.84;5091889;28;3716;-94
2022/04/10 01:09:55;;;;;;;;;;;;;;;5.80;58.35;98578.72;5090893;28;2069;-95
2022/04/10 01:12:21;;;;;;;;;;;;;;;5.79;58.26;98585.91;5107190;28;3527;-95
2022/04/10 01:14:48;;;;;;;;;;;;;;;5.79;58.54;98587.75;5097642;28;1308;-95
2022/04/10 01:17:15;;;;;;;;;;;;;;;5.81;58.48;98583.00;5093432;28;3669;-95
2022/04/10 01:19:41;;;;;;;;;;;;;;;5.78;58.25;98591.50;5096061;28;3705;-95
2022/04/10 01:22:08;;;;;;;;;;;;;;;5.77;58.57;98588.00;5093012;28;4131;-94
2022/04/10 01:24:34;;;;;;;;;;;;;;;5.77;58.16;98589.88;5094871;28;3177;-95
2022/04/10 01:27:02;;;;;;;;;;;;;;;5.77;58.25;98595.22;5086020;28;1984;-95
2022/04/10 01:29:29;;;;;;;;;;;;;;;5.76;58.36;98604.25;5086608;28;3846;-94
2022/04/10 01:31:55;;;;;;;;;;;;;;;5.76;58.34;98597.06;5082639;28;1298;-94
2022/04/10 01:34:22;;;;;;;;;;;;;;;5.75;58.51;98600.78;5092389;28;3764;-94
2022/04/10 01:36:48;;;;;;;;;;;;;;;5.76;58.37;98606.94;5076546;28;3505;-94
2022/04/10 01:39:16;;;;;;;;;;;;;;;5.76;58.42;98618.44;5096788;28;4107;-94
2022/04/10 01:41:42;;;;;;;;;;;;;;;5.74;58.42;98615.19;5098299;28;3870;-95
2022/04/10 01:44:09;;;;;;;;;;;;;;;5.74;58.27;98612.53;5097387;28;1347;-95
2022/04/10 01:46:35;;;;;;;;;;;;;;;5.73;58.46;98618.09;5094855;28;3820;-95
2022/04/10 01:49:02;;;;;;;;;;;;;;;5.73;58.41;98618.91;5086632;28;3487;-94
2022/04/10 01:51:28;;;;;;;;;;;;;;;5.73;58.38;98623.44;5092572;28;2532;-94
2022/04/10 01:53:55;;;;;;;;;;;;;;;5.71;58.57;98626.34;5088101;28;3942;-95
2022/04/10 01:56:22;;;;;;;;;;;;;;;5.72;58.46;98627.16;5078431;28;1230;-94
2022/04/10 01:58:48;;;;;;;;;;;;;;;5.70;58.46;98630.84;5091803;28;4390;-94
2022/04/10 02:01:15;;;;;;;;;;;;;;;5.68;58.56;98632.16;5080362;28;2261;-94
2022/04/10 02:03:41;;;;;;;;;;;;;;;5.70;58.29;98635.41;5093710;28;4129;-94
2022/04/10 02:06:08;;;;;;;;;;;;;;;5.68;58.34;98642.84;5093913;28;3707;-94
2022/04/10 02:08:35;;;;;;;;;;;;;;;5.66;58.36;98632.38;5083187;28;1843;-95
2022/04/10 02:11:02;;;;;;;;;;;;;;;5.65;58.34;98632.63;5087900;28;3452;-95
2022/04/10 02:13:29;;;;;;;;;;;;;;;5.67;58.38;98639.34;5079292;28;1801;-94
2022/04/10 02:15:55;;;;;;;;;;;;;;;5.66;58.34;98640.41;5092914;28;3641;-95
2022/04/10 02:18:22;;;;;;;;;;;;;;;5.65;58.31;98641.47;5079467;28;3576;-94
2022/04/10 02:20:49;;;;;;;;;;;;;;;5.64;58.36;98645.16;5088150;28;2341;-94
2022/04/10 02:23:15;;;;;;;;;;;;;;;5.64;58.57;98645.16;5092745;28;3393;-94
2022/04/10 02:25:42;;;;;;;;;;;;;;;5.62;58.46;98647.28;5113840;28;2367;-94
2022/04/10 02:28:08;;;;;;;;;;;;;;;5.63;58.26;98642.72;5097747;28;3847;-94
2022/04/10 02:30:35;;;;;;;;;;;;;;;5.62;58.35;98635.78;5094927;28;3797;-95
2022/04/10 02:33:01;;;;;;;;;;;;;;;5.63;58.22;98637.41;5099101;28;2650;-95
2022/04/10 02:35:28;;;;;;;;;;;;;;;5.62;58.33;98635.78;5096688;28;3703;-95
2022/04/10 02:37:54;;;;;;;;;;;;;;;5.60;58.58;98641.34;5095501;28;2201;-95
2022/04/10 02:40:21;;;;;;;;;;;;;;;5.60;58.30;98640.53;5092522;28;3709;-94
2022/04/10 02:42:47;;;;;;;;;;;;;;;5.58;58.55;98643.41;5096690;28;2216;-95
2022/04/10 02:45:14;;;;;;;;;;;;;;;5.57;58.35;98633.78;5084931;28;3676;-94
2022/04/10 02:47:42;;;;;;;;;;;;;;;5.57;58.59;98641.00;5096487;28;3633;-94
2022/04/10 02:50:08;;;;;;;;;;;;;;;5.56;58.38;98639.34;5089376;28;1812;-94
2022/04/10 02:52:35;;;;;;;;;;;;;;;5.55;58.34;98638.53;5088644;28;3823;-94
2022/04/10 02:55:01;;;;;;;;;;;;;;;5.54;58.33;98644.94;5097640;28;991;-95
2022/04/10 02:57:28;;;;;;;;;;;;;;;5.54;58.54;98650.28;5094394;28;3495;-94
2022/04/10 02:59:54;;;;;;;;;;;;;;;5.55;58.56;98656.44;5083446;28;3645;-95
2022/04/10 03:02:21;;;;;;;;;;;;;;;5.56;58.52;98652.72;5098662;28;2350;-94
2022/04/10 03:04:47;;;;;;;;;;;;;;;5.54;58.20;98662.84;5094564;28;3746;-94
2022/04/10 03:07:14;;;;;;;;;;;;;;;5.53;58.60;98664.69;5104504;28;2788;-95
2022/04/10 03:09:41;;;;;;;;;;;;;;;5.52;58.46;98667.59;5093075;28;3609;-95
2022/04/10 03:12:08;;;;;;;;;;;;;;;5.52;58.34;98664.91;5115719;28;3065;-93
2022/04/10 03:14:35;;;;;;;;;;;;;;;5.52;58.45;98668.38;5111433;28;3984;-94
2022/04/10 03:17:01;;;;;;;;;;;;;;;5.52;58.34;98664.91;5088067;28;3228;-94
2022/04/10 03:19:28;;;;;;;;;;;;;;;5.52;58.38;98668.38;5099196;28;1388;-94
2022/04/10 03:21:55;;;;;;;;;;;;;;;5.50;58.24;98662.50;5097411;28;3767;-95
2022/04/10 03:24:21;;;;;;;;;;;;;;;5.50;58.28;98661.66;5086948;28;2020;-94
2022/04/10 03:26:48;;;;;;;;;;;;;;;5.49;58.22;98662.72;5113404;28;3557;-94
2022/04/10 03:29:14;;;;;;;;;;;;;;;5.49;58.12;98668.03;5096198;28;3760;-94
2022/04/10 03:31:41;;;;;;;;;;;;;;;5.49;58.18;98668.84;5114285;28;4209;-95
2022/04/10 03:34:07;;;;;;;;;;;;;;;5.46;58.32;98662.13;5096507;28;3745;-94
2022/04/10 03:36:34;;;;;;;;;;;;;;;5.48;58.13;98664.56;5094028;28;2535;-94
2022/04/10 03:39:01;;;;;;;;;;;;;;;5.48;58.07;98672.59;5102381;28;4604;-94
2022/04/10 03:41:27;;;;;;;;;;;;;;;5.45;58.29;98667.72;5097123;28;1722;-94
2022/04/10 03:43:54;;;;;;;;;;;;;;;5.43;58.21;98675.94;5098410;28;4014;-95
2022/04/10 03:46:20;;;;;;;;;;;;;;;5.44;58.20;98677.56;5091763;28;4158;-95
2022/04/10 03:48:47;;;;;;;;;;;;;;;5.43;58.26;98678.59;5084388;28;1847;-95
2022/04/10 03:51:13;;;;;;;;;;;;;;;5.43;57.99;98673.25;5089866;28;3764;-94
2022/04/10 03:53:40;;;;;;;;;;;;;;;5.42;57.93;98673.50;5078813;28;1324;-95
2022/04/10 03:56:07;;;;;;;;;;;;;;;5.43;58.26;98683.13;5088577;28;3768;-94
2022/04/10 03:58:33;;;;;;;;;;;;;;;5.43;57.79;98696.50;5100122;28;3915;-95
2022/04/10 04:01:00;;;;;;;;;;;;;;;5.42;58.09;98701.03;5095803;28;1996;-94
2022/04/10 04:03:26;;;;;;;;;;;;;;;5.43;57.98;98699.16;5094725;28;3813;-94
2022/04/10 04:05:55;;;;;;;;;;;;;;;5.43;57.84;98707.16;5098575;28;1327;-95
2022/04/10 04:08:21;;;;;;;;;;;;;;;5.41;57.81;98703.91;5091439;28;3734;-94
2022/04/10 04:10:48;;;;;;;;;;;;;;;5.40;58.12;98704.97;5114647;28;3315;-95
2022/04/10 04:13:15;;;;;;;;;;;;;;;5.39;57.97;98708.69;5116455;28;849;-94
2022/04/10 04:15:41;;;;;;;;;;;;;;;5.40;57.60;98718.31;5088734;28;3927;-95
2022/04/10 04:18:07;;;;;;;;;;;;;;;5.38;57.74;98718.56;5092316;28;2075;-95
2022/04/10 04:20:34;;;;;;;;;;;;;;;5.39;57.77;98725.50;5088147;28;3452;-94
2022/04/10 04:23:01;;;;;;;;;;;;;;;5.38;57.98;98733.72;5085211;28;3673;-95
2022/04/10 04:25:27;;;;;;;;;;;;;;;5.37;57.89;98735.59;5093900;28;4268;-94
2022/04/10 04:27:54;;;;;;;;;;;;;;;5.37;57.89;98735.59;5088859;28;4026;-94
2022/04/10 04:30:20;;;;;;;;;;;;;;;5.35;57.94;98742.22;5087846;28;1329;-95
2022/04/10 04:32:47;;;;;;;;;;;;;;;5.36;57.81;98739.31;5088808;28;3839;-95
2022/04/10 04:35:15;;;;;;;;;;;;;;;5.35;57.97;98744.88;5097719;28;1316;-94
2022/04/10 04:37:41;;;;;;;;;;;;;;;5.35;57.79;98753.69;5095557;28;3926;-94
2022/04/10 04:40:08;;;;;;;;;;;;;;;5.34;57.89;98757.41;5096129;28;3526;-94
2022/04/10 04:42:34;;;;;;;;;;;;;;;5.34;57.65;98754.75;5094845;28;4094;-94
2022/04/10 04:45:01;;;;;;;;;;;;;;;5.33;57.78;98761.13;5091605;28;3838;-95
2022/04/10 04:47:27;;;;;;;;;;;;;;;5.33;57.81;98757.66;5111741;28;2197;-94
2022/04/10 04:49:54;;;;;;;;;;;;;;;5.33;57.77;98763.00;5092797;28;4543;-94
2022/04/10 04:52:20;;;;;;;;;;;;;;;5.33;58.18;98763.00;5094563;28;4522;-95
2022/04/10 04:54:47;;;;;;;;;;;;;;;5.33;58.03;98768.34;5093924;28;4165;-95
2022/04/10 04:57:13;;;;;;;;;;;;;;;5.33;57.97;98768.34;5083333;28;3838;-94
2022/04/10 04:59:40;;;;;;;;;;;;;;;5.32;57.92;98778.19;5096977;28;1805;-94
2022/04/10 05:02:06;;;;;;;;;;;;;;;5.32;57.72;98772.84;5081135;28;3701;-94
2022/04/10 05:04:33;;;;;;;;;;;;;;;5.31;58.04;98778.41;5110374;28;3204;-94
2022/04/10 05:07:00;;;;;;;;;;;;;;;5.30;57.86;98776.81;5090955;28;3655;-95
2022/04/10 05:09:26;;;;;;;;;;;;;;;5.30;57.81;98788.28;5089800;28;3869;-94
2022/04/10 05:11:53;;;;;;;;;;;;;;;5.30;57.70;98790.16;5097325;28;1192;-95
2022/04/10 05:14:19;;;;;;;;;;;;;;;5.31;57.80;98789.09;5091346;28;3639;-95
2022/04/10 05:16:46;;;;;;;;;;;;;;;5.29;57.83;98796.50;5095690;28;4760;-94
2022/04/10 05:19:12;;;;;;;;;;;;;;;5.29;57.85;98805.31;5089549;28;3731;-94
2022/04/10 05:21:39;;;;;;;;;;;;;;;5.29;57.67;98813.34;5092352;28;3668;-94
2022/04/10 05:24:06;;;;;;;;;;;;;;;5.28;57.74;98806.38;5095313;28;4254;-95
2022/04/10 05:26:32;;;;;;;;;;;;;;;5.27;57.84;98809.28;5091559;28;3720;-95
2022/04/10 05:28:59;;;;;;;;;;;;;;;5.27;57.98;98811.97;5106547;28;1917;-94
2022/04/10 05:31:25;;;;;;;;;;;;;;;5.27;57.88;98814.63;5095392;28;3531;-93
2022/04/10 05:33:52;;;;;;;;;;;;;;;5.27;57.71;98819.97;5095167;28;3618;-94
2022/04/10 05:36:18;;;;;;;;;;;;;;;5.25;57.87;98812.19;5087028;28;4758;-94
2022/04/10 05:38:46;;;;;;;;;;;;;;;5.25;57.97;98830.84;5079600;28;3772;-94
2022/04/10 05:41:13;;;;;;;;;;;;;;;5.26;57.96;98821.00;5080487;28;1408;-94
2022/04/10 05:43:39;;;;;;;;;;;;;;;5.24;57.80;98832.72;5091694;28;3947;-94
2022/04/10 05:46:06;;;;;;;;;;;;;;;5.24;57.92;98839.91;5093216;28;3265;-94
2022/04/10 05:48:32;;;;;;;;;;;;;;;5.23;57.86;98848.94;5079599;28;3777;-94
2022/04/10 05:50:59;;;;;;;;;;;;;;;5.23;57.81;98844.44;5079058;28;3759;-94
2022/04/10 05:53:25;;;;;;;;;;;;;;;5.23;57.87;98855.13;5096972;28;1860;-94
2022/04/10 05:55:52;;;;;;;;;;;;;;;5.23;57.88;98851.63;5095256;28;3935;-95
2022/04/10 05:58:19;;;;;;;;;;;;;;;5.23;57.90;98867.63;5099185;28;1293;-94
2022/04/10 06:00:45;;;;;;;;;;;;;;;5.22;57.66;98868.69;5088561;28;3830;-94
2022/04/10 06:03:12;;;;;;;;;;;;;;;5.22;57.66;98871.34;5097390;28;1983;-95
2022/04/10 06:05:39;;;;;;;;;;;;;;;5.21;57.77;98872.41;5090145;28;4114;-92
2022/04/10 06:08:06;;;;;;;;;;;;;;;5.22;57.71;98882.03;5088050;27;3603;-94
2022/04/10 06:10:32;;;;;;;;;;;;;;;5.21;57.75;98893.75;5100071;28;2132;-94
2022/04/10 06:12:59;;;;;;;;;;;;;;;5.21;57.64;98883.88;5088223;28;3864;-94
2022/04/10 06:15:25;;;;;;;;;;;;;;;5.21;57.53;98888.41;5081228;28;3475;-94
2022/04/10 06:17:52;;;;;;;;;;;;;;;5.21;57.45;98893.75;5094146;28;2610;-94
2022/04/10 06:20:18;;;;;;;;;;;;;;;5.20;57.55;98900.13;5099401;28;4812;-94
2022/04/10 06:22:45;;;;;;;;;;;;;;;5.19;57.84;98904.63;5080355;28;1321;-94
2022/04/10 06:25:11;;;;;;;;;;;;;;;5.19;57.47;98909.16;5089111;28;3509;-95
2022/04/10 06:27:38;;;;;;;;;;;;;;;5.19;57.61;98914.50;5080563;28;1909;-95
2022/04/10 06:30:05;;;;;;;;;;;;;;;5.19;57.41;98917.19;5115986;28;3828;-94
2022/04/10 06:32:31;;;;;;;;;;;;;;;5.20;57.33;98918.78;5095281;28;4475;-94
2022/04/10 06:34:58;;;;;;;;;;;;;;;5.18;57.45;98923.56;5100115;28;1182;-95
2022/04/10 06:37:24;;;;;;;;;;;;;;;5.18;57.55;98921.72;5087376;28;3682;-95
2022/04/10 06:39:51;;;;;;;;;;;;;;;5.19;57.38;98938.53;5098143;28;1286;-94
2022/04/10 06:42:17;;;;;;;;;;;;;;;5.19;57.19;98935.88;5094780;28;3705;-95
2022/04/10 06:44:44;;;;;;;;;;;;;;;5.18;57.30;98936.91;5081554;28;3671;-94
2022/04/10 06:47:10;;;;;;;;;;;;;;;5.19;57.50;98933.19;5099279;28;1902;-94
2022/04/10 06:49:37;;;;;;;;;;;;;;;5.18;57.40;98939.59;5094714;28;3720;-94
2022/04/10 06:52:03;;;;;;;;;;;;;;;5.17;57.41;98933.41;5079893;28;1390;-94
2022/04/10 06:54:30;;;;;;;;;;;;;;;5.18;57.36;98936.91;5085106;28;4012;-96
2022/04/10 06:56:56;;;;;;;;;;;;;;;5.17;57.31;98932.59;5095877;28;3114;-94
2022/04/10 06:59:23;;;;;;;;;;;;;;;5.19;57.03;98938.53;5098231;28;3707;-95
2022/04/10 07:01:49;;;;;;;;;;;;;;;5.19;56.65;98927.84;5096328;28;3767;-95
2022/04/10 07:04:16;;;;;;;;;;;;;;;5.17;57.18;98941.41;5097006;28;1231;-95
2022/04/10 07:06:46;;;;;;;;;;;;;;;5.17;57.18;98940.59;5093915;28;3830;-94
2022/04/10 07:09:13;;;;;;;;;;;;;;;5.16;57.09;98939.78;5097656;28;1917;-94
2022/04/10 07:11:39;;;;;;;;;;;;;;;5.16;57.44;98949.66;5097847;28;3803;-94
2022/04/10 07:14:06;;;;;;;;;;;;;;;5.16;57.23;98953.13;5087792;28;3535;-94
2022/04/10 07:16:32;;;;;;;;;;;;;;;5.17;57.25;98951.28;5100778;28;3723;-94
2022/04/10 07:18:59;;;;;;;;;;;;;;;5.16;57.30;98960.34;5092499;28;3823;-94
2022/04/10 07:24:06;;;;;;;;;;;;;;;5.17;57.10;98965.44;5098012;28;3702;-94
2022/04/10 07:26:32;;;;;;;;;;;;;;;5.17;57.26;98961.94;5094675;28;3127;-94
2022/04/10 07:28:59;;;;;;;;;;;;;;;5.17;57.00;98969.97;5098927;28;1973;-94
2022/04/10 07:31:25;;;;;;;;;;;;;;;5.16;57.22;98969.16;5089512;28;3918;-94
2022/04/10 07:33:52;;;;;;;;;;;;;;;5.16;56.90;98985.16;5092757;28;1167;-94
2022/04/10 07:36:19;;;;;;;;;;;;;;;5.17;57.00;98984.13;5090227;28;3585;-94
2022/04/10 07:38:46;;;;;;;;;;;;;;;5.15;57.10;98983.53;5098496;28;3288;-94
2022/04/10 07:41:12;;;;;;;;;;;;;;;5.16;56.79;98987.84;5094401;28;3824;-95
2022/04/10 07:43:39;;;;;;;;;;;;;;;5.17;57.10;98981.44;5093334;28;3901;-94
2022/04/10 07:49:01;;;;;;;;;;;;;;;5.17;56.91;98988.66;5029663;28;3979;-94
2022/04/10 07:51:28;;;;;;;;;;;;;;;5.16;57.01;98985.16;5077924;28;1869;-95
2022/04/10 07:53:56;;;;;;;;;;;;;;;5.17;57.12;98993.97;5098203;28;1539;-95
2022/04/10 07:56:23;;;;;;;;;;;;;;;5.18;57.05;99006.31;5094227;28;3943;-95
2022/04/10 07:58:50;;;;;;;;;;;;;;;5.18;57.00;99006.31;5096260;28;1187;-95
2022/04/10 08:01:16;;;;;;;;;;;;;;;5.18;57.06;99007.13;5090377;28;3822;-95
2022/04/10 08:03:43;;;;;;;;;;;;;;;5.17;57.22;99016.16;5096182;28;3384;-94
2022/04/10 08:06:10;;;;;;;;;;;;;;;5.17;56.92;99016.16;5097202;28;4126;-94
2022/04/10 08:08:36;;;;;;;;;;;;;;;5.20;56.89;99022.91;5093007;28;3766;-95
2022/04/10 08:11:03;;;;;;;;;;;;;;;5.19;56.90;99021.28;5092803;28;1493;-96
2022/04/10 08:13:29;;;;;;;;;;;;;;;5.18;57.10;99025.81;5095443;28;3451;-94
2022/04/10 08:15:56;;;;;;;;;;;;;;;5.19;57.22;99024.75;5098455;28;1206;-94
2022/04/10 08:18:22;;;;;;;;;;;;;;;5.19;57.35;99024.75;5089501;28;3597;-94
2022/04/10 08:20:49;;;;;;;;;;;;;;;5.20;56.93;99028.22;5079978;28;4691;-94
2022/04/10 08:23:17;;;;;;;;;;;;;;;5.20;57.19;99030.91;5085021;28;1374;-94
2022/04/10 08:25:43;;;;;;;;;;;;;;;5.21;57.34;99032.56;5077931;28;3883;-94
2022/04/10 08:28:10;;;;;;;;;;;;;;;5.21;57.27;99036.03;5086254;28;1902;-94
2022/04/10 08:30:39;;;;;;;;;;;;;;;5.21;57.36;99038.69;5103592;28;3901;-95
2022/04/10 08:33:07;;;;;;;;;;;;;;;5.20;57.53;99036.25;5096589;28;3706;-94
2022/04/10 08:35:33;;;;;;;;;;;;;;;5.22;57.41;99031.50;5080631;28;4284;-95
2022/04/10 08:38:00;;;;;;;;;;;;;;;5.22;57.33;99032.31;5089989;28;3908;-95
2022/04/10 08:40:26;;;;;;;;;;;;;;;5.22;57.26;99036.84;5080733;28;1613;-94
2022/04/10 08:42:53;;;;;;;;;;;;;;;5.23;57.25;99043.81;5088465;28;3815;-95
2022/04/10 08:45:19;;;;;;;;;;;;;;;5.23;57.46;99041.13;5080228;28;2027;-94
2022/04/10 08:47:46;;;;;;;;;;;;;;;5.23;57.50;99049.16;5085571;28;3749;-95
2022/04/10 08:50:13;;;;;;;;;;;;;;;5.23;57.31;99051.81;5083469;28;3775;-94
2022/04/10 08:52:39;;;;;;;;;;;;;;;5.23;57.60;99052.66;5092349;28;4156;-94
2022/04/10 08:55:06;;;;;;;;;;;;;;;5.26;57.38;99051.38;5091320;28;3988;-94
2022/04/10 08:57:33;;;;;;;;;;;;;;;5.26;57.39;99058.56;5094283;28;1389;-94
2022/04/10 09:00:00;;;;;;;;;;;;;;;5.28;57.54;99053.84;5094914;28;3653;-94
2022/04/10 09:02:26;;;;;;;;;;;;;;;5.27;57.50;99058.38;5113574;28;3720;-95
2022/04/10 09:04:52;;;;;;;;;;;;;;;5.27;57.30;99058.38;5097047;28;4144;-95
2022/04/10 09:07:20;;;;;;;;;;;;;;;5.31;57.16;99064.06;5085741;28;3606;-94
2022/04/10 09:09:46;;;;;;;;;;;;;;;5.30;57.36;99065.94;5107773;28;1961;-95
2022/04/10 09:12:13;;;;;;;;;;;;;;;5.29;57.32;99061.59;5087282;28;4614;-95
2022/04/10 09:14:39;;;;;;;;;;;;;;;5.29;57.65;99064.28;5090433;28;3878;-95
2022/04/10 09:17:06;;;;;;;;;;;;;;;5.30;57.40;99057.91;5093692;28;3899;-95
2022/04/10 09:19:32;;;;;;;;;;;;;;;5.30;57.45;99071.25;5092104;28;4374;-95
2022/04/10 09:21:59;;;;;;;;;;;;;;;5.33;57.33;99076.16;5091015;28;1403;-95
2022/04/10 09:24:26;;;;;;;;;;;;;;;5.33;57.37;99076.16;5101742;28;3801;-95
2022/04/10 09:26:52;;;;;;;;;;;;;;;5.33;57.46;99073.50;5077273;28;1226;-94
2022/04/10 09:29:18;;;;;;;;;;;;;;;5.34;57.62;99072.44;5107210;28;3808;-95
2022/04/10 09:31:45;;;;;;;;;;;;;;;5.35;57.52;99063.38;5088932;28;3754;-95
2022/04/10 09:34:12;;;;;;;;;;;;;;;5.36;57.39;99062.38;5100837;28;1435;-94
2022/04/10 09:36:38;;;;;;;;;;;;;;;5.37;57.42;99068.53;5099241;28;3765;-95
2022/04/10 09:39:05;;;;;;;;;;;;;;;5.37;57.52;99073.84;5096013;28;1401;-95
2022/04/10 09:41:31;;;;;;;;;;;;;;;5.38;57.33;99064.81;5083341;28;3779;-95
2022/04/10 09:43:58;;;;;;;;;;;;;;;5.38;57.58;99057.63;5097733;28;3833;-95
2022/04/10 09:46:24;;;;;;;;;;;;;;;5.40;57.33;99071.56;5095614;28;4054;-95
2022/04/10 09:48:51;;;;;;;;;;;;;;;5.43;57.16;99083.66;5094744;28;3993;-95
2022/04/10 09:51:17;;;;;;;;;;;;;;;5.41;57.32;99073.22;5081104;28;1600;-95
2022/04/10 09:53:44;;;;;;;;;;;;;;;5.41;57.39;99075.03;5085733;28;3868;-95
2022/04/10 09:56:10;;;;;;;;;;;;;;;5.44;57.28;99080.78;5093322;28;3864;-95
2022/04/10 09:58:36;;;;;;;;;;;;;;;5.45;57.18;99090.41;5103277;28;5216;-95
2022/04/10 10:01:04;;;;;;;;;;;;;;;5.46;57.39;99083.19;5080841;28;2246;-94
2022/04/10 10:03:30;;;;;;;;;;;;;;;5.47;57.27;99082.16;5089023;28;2227;-95
2022/04/10 10:05:57;;;;;;;;;;;;;;;5.49;57.60;99080.09;5100647;28;1311;-95
2022/04/10 10:08:24;;;;;;;;;;;;;;;5.50;57.03;99096.91;5100808;28;1933;-95
2022/04/10 10:10:50;;;;;;;;;;;;;;;5.51;57.04;99093.22;5094712;28;4237;-95
2022/04/10 10:13:17;;;;;;;;;;;;;;;5.51;57.04;99096.72;5096783;28;3773;-95
2022/04/10 10:15:44;;;;;;;;;;;;;;;5.53;57.43;99086.63;5100657;28;1288;-96
2022/04/10 10:18:10;;;;;;;;;;;;;;;5.54;57.50;99087.44;5095147;28;3748;-96
2022/04/10 10:20:38;;;;;;;;;;;;;;;5.55;56.41;99091.75;5098866;28;1959;-95
2022/04/10 10:23:05;;;;;;;;;;;;;;;5.54;57.04;99088.25;5100565;28;4101;-96
2022/04/10 10:25:31;;;;;;;;;;;;;;;5.54;56.78;99096.28;5099484;28;3746;-96
2022/04/10 10:27:58;;;;;;;;;;;;;;;5.54;56.80;99090.94;5099615;28;1905;-95
2022/04/10 10:30:24;;;;;;;;;;;;;;;5.55;55.94;99091.75;5096317;28;3800;-96
2022/04/10 10:32:52;;;;;;;;;;;;;;;5.57;56.74;99087.00;5100393;28;1267;-94
2022/04/10 10:35:18;;;;;;;;;;;;;;;5.57;56.91;99100.34;5094406;28;4022;-96
2022/04/10 10:37:45;;;;;;;;;;;;;;;5.59;57.15;99090.25;5088597;28;3782;-96
2022/04/10 10:40:12;;;;;;;;;;;;;;;5.59;57.10;99096.44;5095639;28;1446;-95
2022/04/10 10:42:38;;;;;;;;;;;;;;;5.59;57.00;99108.94;5089895;28;3588;-96
2022/04/10 10:45:05;;;;;;;;;;;;;;;5.59;56.80;99104.44;5100172;28;1290;-96
2022/04/10 10:47:31;;;;;;;;;;;;;;;5.61;57.15;99098.84;5089477;28;3691;-96
2022/04/10 10:49:58;;;;;;;;;;;;;;;5.63;56.74;99110.16;5097592;28;3677;-96
2022/04/10 10:52:25;;;;;;;;;;;;;;;5.61;55.73;99121.03;5099357;28;4257;-96
2022/04/10 10:54:51;;;;;;;;;;;;;;;5.63;56.50;99120.84;5098596;28;3396;-96
2022/04/10 10:57:18;;;;;;;;;;;;;;;5.66;56.93;99110.50;5100727;28;1782;-96
2022/04/10 10:59:44;;;;;;;;;;;;;;;5.65;57.60;99119.56;5099214;28;3698;-96
2022/04/10 11:02:11;;;;;;;;;;;;;;;5.68;57.53;99113.78;5084504;28;3444;-96
2022/04/10 11:04:38;;;;;;;;;;;;;;;5.68;56.25;99123.66;5099841;28;1416;-96
2022/04/10 11:07:04;;;;;;;;;;;;;;;5.68;56.53;99129.00;5080776;28;3867;-96
2022/04/10 11:09:31;;;;;;;;;;;;;;;5.70;56.76;99132.25;5081136;28;2750;-96
2022/04/10 11:11:57;;;;;;;;;;;;;;;5.72;57.25;99143.53;5092832;28;4563;-96
2022/04/10 11:14:24;;;;;;;;;;;;;;;5.74;57.49;99135.31;5096090;28;1654;-96
2022/04/10 11:16:50;;;;;;;;;;;;;;;5.75;57.74;99135.06;5088904;28;3748;-96
2022/04/10 11:19:19;;;;;;;;;;;;;;;5.73;57.08;99147.81;5086239;28;1923;-96
2022/04/10 11:21:46;;;;;;;;;;;;;;;5.75;57.64;99140.41;5099889;28;4182;-96
2022/04/10 11:24:13;;;;;;;;;;;;;;;5.77;57.65;99143.69;5096785;28;3803;-96
2022/04/10 11:26:40;;;;;;;;;;;;;;;5.76;57.32;99141.22;5116956;28;1822;-96
2022/04/10 11:29:08;;;;;;;;;;;;;;;5.77;57.27;99151.72;5099010;28;1914;-96
2022/04/10 11:31:36;;;;;;;;;;;;;;;5.78;57.31;99156.00;5105630;28;2409;-96
2022/04/10 11:34:02;;;;;;;;;;;;;;;5.79;57.49;99154.94;5098475;28;4275;-96
2022/04/10 11:36:29;;;;;;;;;;;;;;;5.81;57.81;99160.09;5091450;28;3945;-96
2022/04/10 11:38:56;;;;;;;;;;;;;;;5.81;57.95;99158.22;5103814;28;1221;-96
2022/04/10 11:41:23;;;;;;;;;;;;;;;5.83;57.84;99158.03;5102219;28;3699;-96
2022/04/10 11:43:49;;;;;;;;;;;;;;;5.82;56.18;99159.03;5103747;28;4000;-96
2022/04/10 11:46:16;;;;;;;;;;;;;;;5.84;56.85;99164.97;5117152;28;1401;-96
2022/04/10 11:48:43;;;;;;;;;;;;;;;5.85;57.51;99166.59;5097751;28;3807;-96
2022/04/10 11:51:09;;;;;;;;;;;;;;;6.39;52.94;99166.84;5082317;28;1319;-96
2022/04/10 11:53:36;;;;;;;;;;;;;;;6.16;56.01;99175.56;5092607;28;2292;-96
2022/04/10 11:56:03;;;;;;;;;;;;;;;6.03;55.25;99172.00;5085484;28;2440;-96
2022/04/10 11:58:29;;;;;;;;;;;;;;;5.99;55.70;99178.81;5095128;28;1996;-96
2022/04/10 12:00:56;;;;;;;;;;;;;;;5.98;56.22;99179.88;5097717;28;2228;-96
2022/04/10 12:03:22;;;;;;;;;;;;;;;5.98;56.43;99187.06;5085877;28;1171;-96
2022/04/10 12:05:49;;;;;;;;;;;;;;;5.98;57.02;99185.22;5096411;28;1845;-96
2022/04/10 12:08:16;;;;;;;;;;;;;;;5.98;57.12;99177.19;5099076;28;2301;-96
2022/04/10 12:10:43;;;;;;;;;;;;;;;5.98;56.17;99187.88;5104228;28;2068;-96
2022/04/10 12:13:09;;;;;;;;;;;;;;;5.99;55.32;99194.03;5104191;28;3594;-96
2022/04/10 12:15:36;;;;;;;;;;;;;;;6.02;57.24;99185.56;5105391;28;4085;-96
2022/04/10 12:18:02;;;;;;;;;;;;;;;6.03;57.05;99189.88;5104208;28;3721;-96
2022/04/10 12:20:29;;;;;;;;;;;;;;;6.04;56.74;99194.19;5107573;28;1385;-96
2022/04/10 12:22:56;;;;;;;;;;;;;;;6.05;57.25;99204.66;5103065;28;2503;-96
2022/04/10 12:25:23;;;;;;;;;;;;;;;6.06;56.65;99200.97;5099676;28;1285;-96
2022/04/10 12:27:51;;;;;;;;;;;;;;;6.08;57.94;99200.72;5104003;28;1978;-96
2022/04/10 12:30:18;;;;;;;;;;;;;;;6.08;56.97;99201.53;5103405;28;2032;-96
2022/04/10 12:32:45;;;;;;;;;;;;;;;6.11;57.85;99202.94;5103677;28;2373;-96
2022/04/10 12:35:12;;;;;;;;;;;;;;;6.12;57.60;99204.59;5103823;28;4017;-96
2022/04/10 12:37:40;;;;;;;;;;;;;;;6.14;58.05;99202.50;5105499;28;1303;-96
2022/04/10 12:40:07;;;;;;;;;;;;;;;6.13;57.16;99190.19;5102046;28;2493;-96
2022/04/10 12:42:34;;;;;;;;;;;;;;;6.17;57.36;99207.41;5103027;28;1884;-96
2022/04/10 12:45:03;;;;;;;;;;;;;;;6.17;57.63;99204.72;5106461;28;1307;-96
2022/04/10 12:47:29;;;;;;;;;;;;;;;6.19;57.73;99199.97;5093120;28;3717;-96
2022/04/10 12:49:56;;;;;;;;;;;;;;;6.22;57.76;99202.19;5093125;28;2346;-96
2022/04/10 12:52:24;;;;;;;;;;;;;;;6.22;58.07;99199.53;5098225;28;3497;-96
2022/04/10 12:54:52;;;;;;;;;;;;;;;6.25;57.17;99206.28;5106503;28;1895;-96
2022/04/10 12:57:19;;;;;;;;;;;;;;;6.26;57.82;99206.06;5102196;28;3782;-96
2022/04/10 12:59:46;;;;;;;;;;;;;;;6.29;57.94;99213.63;5103814;28;2076;-96
2022/04/10 13:02:12;;;;;;;;;;;;;;;6.30;58.27;99215.28;5101154;28;1171;-96
2022/04/10 13:04:40;;;;;;;;;;;;;;;6.31;58.12;99216.09;5100781;28;3774;-96
2022/04/10 13:07:06;;;;;;;;;;;;;;;6.32;58.00;99215.88;5086843;28;1227;-97
2022/04/10 13:12:49;;;;;;;;;;;;;;;6.37;58.49;99221.34;5123082;28;1817;-96